Time;durP1;ratioP1;P1;durP2;ratioP2;P2;SDS_P1;SDS_P2;PMS_P1;PMS_P2;Temp;Humidity;BMP_temperature;BMP_pressure;BME280_temperature;BME280_humidity;BME280_pressure;Samples;Min_cycle;Max_cycle;Signal;HPM_P1;HPM_P2
2021/05/21 00:00:27;;;;;;;3.30;2.10;;;17.00;70.90;;;;;;5133604;27;20104;-46
2021/05/21 00:02:53;;;;;;;2.65;2.03;;;17.00;70.80;;;;;;5133582;27;20043;-48
2021/05/21 00:05:19;;;;;;;2.00;1.80;;;17.00;70.90;;;;;;5133673;27;20046;-46
2021/05/21 00:07:45;;;;;;;2.30;2.05;;;17.00;70.90;;;;;;5133809;27;20532;-48
2021/05/21 00:10:11;;;;;;;2.05;1.67;;;17.10;71.00;;;;;;5133617;28;20108;-45
2021/05/21 00:12:36;;;;;;;1.73;1.63;;;17.00;70.90;;;;;;5134527;27;20046;-48
2021/05/21 00:15:04;;;;;;;2.30;1.65;;;17.00;70.90;;;;;;5138059;27;20051;-46
2021/05/21 00:17:30;;;;;;;2.05;1.77;;;17.00;70.90;;;;;;5137753;27;20043;-46
2021/05/21 00:19:58;;;;;;;2.20;1.83;;;17.00;70.90;;;;;;5137832;27;20043;-44
2021/05/21 00:22:24;;;;;;;2.38;1.73;;;17.00;70.90;;;;;;5137639;27;20509;-44
2021/05/21 00:24:49;;;;;;;2.42;1.90;;;17.00;70.90;;;;;;5137115;27;20043;-47
2021/05/21 00:27:15;;;;;;;1.80;1.60;;;17.00;70.90;;;;;;5138010;27;20130;-46
2021/05/21 00:29:41;;;;;;;2.72;1.80;;;17.00;71.00;;;;;;5137133;27;20039;-44
2021/05/21 00:32:07;;;;;;;1.65;1.55;;;17.00;71.00;;;;;;5137821;27;20047;-45
2021/05/21 00:34:32;;;;;;;1.88;1.60;;;17.00;71.00;;;;;;5137265;27;20039;-48
2021/05/21 00:36:58;;;;;;;2.03;1.73;;;17.00;71.00;;;;;;5137101;27;20525;-45
2021/05/21 00:39:24;;;;;;;2.72;1.70;;;17.00;71.00;;;;;;5137584;27;20456;-47
2021/05/21 00:41:50;;;;;;;1.70;1.55;;;17.00;71.00;;;;;;5137360;27;20051;-47
2021/05/21 00:44:16;;;;;;;2.00;1.80;;;17.00;71.00;;;;;;5136777;27;20083;-49
2021/05/21 00:46:42;;;;;;;1.85;1.50;;;17.00;71.00;;;;;;5137350;27;20047;-49
2021/05/21 00:49:08;;;;;;;2.33;1.40;;;17.10;71.10;;;;;;5137215;27;20039;-46
2021/05/21 00:51:33;;;;;;;4.65;1.58;;;17.00;71.00;;;;;;5137454;27;20055;-44
2021/05/21 00:54:01;;;;;;;1.65;1.40;;;17.00;71.00;;;;;;5136930;27;20096;-48
2021/05/21 00:56:27;;;;;;;1.98;1.75;;;17.00;71.10;;;;;;5136839;27;20051;-45
2021/05/21 00:58:52;;;;;;;1.60;1.50;;;17.00;71.10;;;;;;5136762;27;20108;-45
2021/05/21 01:01:19;;;;;;;1.30;1.20;;;17.00;71.10;;;;;;5136943;27;20054;-48
2021/05/21 01:03:44;;;;;;;1.30;1.20;;;17.00;71.10;;;;;;5137245;27;20415;-45
2021/05/21 01:06:12;;;;;;;1.42;1.33;;;17.00;71.10;;;;;;5136566;27;20046;-45
2021/05/21 01:08:38;;;;;;;1.65;1.40;;;17.00;71.10;;;;;;5136694;27;20364;-44
2021/05/21 01:11:06;;;;;;;1.58;1.40;;;17.00;71.10;;;;;;5136908;27;20097;-50
2021/05/21 01:13:32;;;;;;;1.40;1.30;;;17.00;71.10;;;;;;5136667;27;20076;-46
2021/05/21 01:15:58;;;;;;;1.48;1.38;;;17.00;71.10;;;;;;5136384;27;20081;-45
2021/05/21 01:18:24;;;;;;;1.40;1.30;;;17.00;71.10;;;;;;5136305;27;20051;-47
2021/05/21 01:20:50;;;;;;;2.20;1.27;;;17.00;71.10;;;;;;5136538;27;20043;-46
2021/05/21 01:23:16;;;;;;;1.50;1.40;;;17.00;71.10;;;;;;5136795;27;20142;-47
2021/05/21 01:25:42;;;;;;;1.30;1.20;;;17.00;71.10;;;;;;5136323;27;20042;-49
2021/05/21 01:28:10;;;;;;;1.50;1.40;;;16.90;71.10;;;;;;5136600;27;20503;-49
2021/05/21 01:30:36;;;;;;;2.60;1.20;;;16.90;71.10;;;;;;5136217;27;20051;-42
2021/05/21 01:33:07;;;;;;;1.30;1.20;;;17.00;71.20;;;;;;5136302;27;20452;-44
2021/05/21 01:35:33;;;;;;;1.30;1.20;;;16.90;71.10;;;;;;5136662;27;20047;-47
2021/05/21 01:37:59;;;;;;;1.30;1.20;;;16.90;71.10;;;;;;5136076;27;20090;-49
2021/05/21 01:40:25;;;;;;;1.63;1.33;;;16.90;71.10;;;;;;5136008;27;20047;-49
2021/05/21 01:42:51;;;;;;;1.25;1.15;;;17.00;71.20;;;;;;5136204;27;20474;-45
2021/05/21 01:45:17;;;;;;;1.58;1.48;;;17.00;71.20;;;;;;5136177;27;20051;-47
2021/05/21 01:47:47;;;;;;;1.40;1.30;;;16.90;71.20;;;;;;5135917;27;20502;-47
2021/05/21 01:50:13;;;;;;;1.30;1.20;;;16.90;71.20;;;;;;5135917;27;20046;-46
2021/05/21 01:52:39;;;;;;;1.67;1.27;;;16.90;71.10;;;;;;5135711;27;20120;-45
2021/05/21 01:55:05;;;;;;;1.30;1.20;;;17.00;71.20;;;;;;5135996;27;20073;-46
2021/05/21 01:57:32;;;;;;;1.35;1.25;;;16.90;71.20;;;;;;5135976;27;20043;-50
2021/05/21 01:59:58;;;;;;;1.27;1.17;;;16.90;71.20;;;;;;5135905;27;20043;-46
2021/05/21 02:02:23;;;;;;;1.10;1.10;;;16.90;71.20;;;;;;5135712;27;20395;-49
2021/05/21 02:04:49;;;;;;;1.25;1.15;;;16.90;71.20;;;;;;5135817;27;20050;-49
2021/05/21 02:07:16;;;;;;;1.20;1.20;;;16.90;71.20;;;;;;5135699;27;20085;-49
2021/05/21 02:09:42;;;;;;;1.00;1.00;;;16.90;71.20;;;;;;5135382;27;20138;-47
2021/05/21 02:12:08;;;;;;;1.30;1.20;;;16.90;71.20;;;;;;5135633;27;20086;-49
2021/05/21 02:14:33;;;;;;;1.15;1.05;;;16.90;71.20;;;;;;5135500;27;20046;-48
2021/05/21 02:16:59;;;;;;;0.98;0.98;;;17.00;71.30;;;;;;5135568;27;20043;-49
2021/05/21 02:19:25;;;;;;;1.20;1.10;;;16.90;71.20;;;;;;5135546;27;20104;-47
2021/05/21 02:21:51;;;;;;;1.35;0.98;;;16.90;71.20;;;;;;5135098;27;20054;-47
2021/05/21 02:24:17;;;;;;;1.35;1.10;;;17.00;71.30;;;;;;5135426;27;20047;-47
2021/05/21 02:26:43;;;;;;;1.13;1.02;;;16.90;71.30;;;;;;5135277;27;20075;-46
2021/05/21 02:29:09;;;;;;;1.25;1.00;;;16.90;71.30;;;;;;5135317;27;20053;-46
2021/05/21 02:31:35;;;;;;;1.10;1.00;;;16.90;71.30;;;;;;5135057;27;20054;-48
2021/05/21 02:34:01;;;;;;;1.40;1.15;;;17.00;71.30;;;;;;5135170;27;20072;-49
2021/05/21 02:36:27;;;;;;;1.33;1.23;;;16.90;71.30;;;;;;5134539;27;20043;-50
2021/05/21 02:38:52;;;;;;;1.42;1.27;;;16.90;71.30;;;;;;5135384;27;20070;-47
2021/05/21 02:41:18;;;;;;;1.20;1.10;;;16.90;71.30;;;;;;5134314;27;20055;-49
2021/05/21 02:43:44;;;;;;;1.02;0.98;;;16.90;71.30;;;;;;5135150;27;20071;-45
2021/05/21 02:46:10;;;;;;;2.00;1.38;;;16.90;71.30;;;;;;5134942;27;20463;-50
2021/05/21 02:48:36;;;;;;;1.75;1.63;;;16.90;71.30;;;;;;5134883;27;20047;-44
2021/05/21 02:51:01;;;;;;;1.80;1.10;;;16.90;71.30;;;;;;5134722;27;20054;-52
2021/05/21 02:53:27;;;;;;;1.27;1.17;;;16.90;71.30;;;;;;5134491;27;20046;-51
2021/05/21 02:55:53;;;;;;;1.20;1.10;;;16.90;71.30;;;;;;5134999;27;20047;-47
2021/05/21 02:58:20;;;;;;;1.63;1.10;;;16.90;71.30;;;;;;5134520;27;20121;-49
2021/05/21 03:00:46;;;;;;;1.02;0.80;;;16.90;71.30;;;;;;5134784;27;20133;-47
2021/05/21 03:03:12;;;;;;;1.70;0.95;;;16.90;71.30;;;;;;5134309;27;20047;-48
2021/05/21 03:05:37;;;;;;;1.20;1.05;;;16.90;71.30;;;;;;5134512;27;20039;-48
2021/05/21 03:08:03;;;;;;;1.25;0.90;;;16.90;71.30;;;;;;5134701;27;20054;-48
2021/05/21 03:10:29;;;;;;;1.02;0.90;;;16.90;71.30;;;;;;5134391;27;20403;-47
2021/05/21 03:12:55;;;;;;;1.13;0.80;;;16.90;71.30;;;;;;5134128;27;20043;-52
2021/05/21 03:15:26;;;;;;;1.20;1.10;;;16.90;71.30;;;;;;5134518;27;20047;-48
2021/05/21 03:17:53;;;;;;;1.67;1.20;;;16.80;71.20;;;;;;5134409;27;20480;-47
2021/05/21 03:20:18;;;;;;;1.65;1.02;;;16.90;71.30;;;;;;5134375;27;20058;-49
2021/05/21 03:22:45;;;;;;;1.73;0.95;;;16.90;71.30;;;;;;5134233;27;20043;-49
2021/05/21 03:25:11;;;;;;;2.00;0.95;;;16.90;71.30;;;;;;5133911;27;20046;-47
2021/05/21 03:27:37;;;;;;;1.23;0.90;;;16.90;71.30;;;;;;5133879;27;20055;-50
2021/05/21 03:30:09;;;;;;;1.70;1.17;;;16.90;71.30;;;;;;5133906;27;20106;-46
2021/05/21 03:32:35;;;;;;;1.25;1.02;;;16.90;71.40;;;;;;5133146;27;20048;-47
2021/05/21 03:35:00;;;;;;;1.48;1.10;;;16.90;71.30;;;;;;5133260;27;20479;-49
2021/05/21 03:37:26;;;;;;;1.23;1.13;;;16.90;72.00;;;;;;5133811;27;20077;-49
2021/05/21 03:39:53;;;;;;;1.30;0.93;;;16.90;71.40;;;;;;5133880;27;20047;-46
2021/05/21 03:42:19;;;;;;;1.73;1.10;;;16.80;71.30;;;;;;5134203;27;20479;-50
2021/05/21 03:44:44;;;;;;;1.23;0.90;;;16.90;71.30;;;;;;5133795;27;20050;-41
2021/05/21 03:47:11;;;;;;;1.30;1.10;;;16.80;71.30;;;;;;5133068;27;20057;-48
2021/05/21 03:49:38;;;;;;;1.13;0.98;;;16.90;71.40;;;;;;5133723;27;20491;-50
2021/05/21 03:52:03;;;;;;;2.03;1.00;;;16.90;71.40;;;;;;5133935;27;20130;-46
2021/05/21 03:54:29;;;;;;;0.77;0.77;;;16.80;71.30;;;;;;5133788;27;20613;-50
2021/05/21 03:56:55;;;;;;;1.13;0.80;;;16.80;71.30;;;;;;5133590;27;20050;-49
2021/05/21 03:59:21;;;;;;;1.60;1.10;;;16.80;71.30;;;;;;5133669;27;20479;-47
2021/05/21 04:01:47;;;;;;;1.33;1.00;;;16.80;71.30;;;;;;5134023;27;20046;-46
2021/05/21 04:04:13;;;;;;;1.08;0.75;;;16.80;71.40;;;;;;5133719;27;20050;-47
2021/05/21 04:06:39;;;;;;;2.15;0.93;;;16.80;71.30;;;;;;5132306;28;20040;-48
2021/05/21 04:09:06;;;;;;;1.17;0.88;;;16.80;71.30;;;;;;5133864;27;20491;-48
2021/05/21 04:11:36;;;;;;;1.30;1.00;;;16.80;71.40;;;;;;5133536;27;20039;-51
2021/05/21 04:14:03;;;;;;;1.92;1.05;;;16.80;71.40;;;;;;5133530;27;20043;-49
2021/05/21 04:16:29;;;;;;;1.02;0.93;;;16.80;71.40;;;;;;5133905;27;20050;-49
2021/05/21 04:18:55;;;;;;;1.10;1.00;;;16.80;71.40;;;;;;5133296;27;20043;-45
2021/05/21 04:21:21;;;;;;;1.63;0.98;;;16.80;71.40;;;;;;5133504;28;20122;-49
2021/05/21 04:23:48;;;;;;;1.38;0.90;;;16.80;71.40;;;;;;5133553;27;20498;-46
2021/05/21 04:26:17;;;;;;;0.73;0.70;;;16.80;71.40;;;;;;5133214;27;20050;-47
2021/05/21 04:28:47;;;;;;;0.93;0.85;;;16.80;71.40;;;;;;5133596;28;20134;-45
2021/05/21 04:31:13;;;;;;;2.15;1.13;;;16.80;71.40;;;;;;5133862;27;20119;-49
2021/05/21 04:33:39;;;;;;;1.27;1.02;;;16.80;71.40;;;;;;5133120;27;20043;-41
2021/05/21 04:36:06;;;;;;;1.40;0.77;;;16.80;71.40;;;;;;5133053;27;20404;-49
2021/05/21 04:38:31;;;;;;;1.10;0.90;;;16.80;71.40;;;;;;5133028;27;20047;-48
2021/05/21 04:40:57;;;;;;;1.20;1.00;;;16.80;71.50;;;;;;5133173;28;20100;-47
2021/05/21 04:43:25;;;;;;;1.00;0.85;;;16.80;71.40;;;;;;5133602;27;20051;-48
2021/05/21 04:45:51;;;;;;;2.13;1.05;;;16.80;71.50;;;;;;5133395;27;20051;-47
2021/05/21 04:48:17;;;;;;;1.08;0.70;;;16.80;71.50;;;;;;5133121;27;20085;-46
2021/05/21 04:50:45;;;;;;;1.30;0.80;;;16.80;71.50;;;;;;5132119;27;20043;-49
2021/05/21 04:53:11;;;;;;;2.05;1.45;;;16.80;72.10;;;;;;5132805;27;20031;-47
2021/05/21 04:55:37;;;;;;;1.40;0.80;;;16.80;71.50;;;;;;5133484;27;20448;-41
2021/05/21 04:58:02;;;;;;;1.08;0.93;;;16.80;71.50;;;;;;5133721;27;20121;-49
2021/05/21 05:00:28;;;;;;;1.70;0.70;;;16.80;71.50;;;;;;5136746;27;20039;-49
2021/05/21 05:02:55;;;;;;;2.17;1.10;;;16.80;71.50;;;;;;5137136;27;20039;-45
2021/05/21 05:05:20;;;;;;;1.27;0.88;;;16.80;71.50;;;;;;5137356;27;20115;-47
2021/05/21 05:07:46;;;;;;;2.40;1.10;;;16.80;71.60;;;;;;5136306;27;20537;-46
2021/05/21 05:10:12;;;;;;;0.80;0.80;;;16.80;71.60;;;;;;5136468;27;20377;-49
2021/05/21 05:12:39;;;;;;;2.40;1.17;;;16.80;71.50;;;;;;5136962;27;20051;-45
2021/05/21 05:15:07;;;;;;;1.00;0.80;;;16.80;71.50;;;;;;5136863;27;20047;-47
2021/05/21 05:17:32;;;;;;;1.77;1.10;;;16.80;71.50;;;;;;5136736;27;20497;-45
2021/05/21 05:19:58;;;;;;;3.33;1.08;;;16.80;71.50;;;;;;5137027;27;20052;-45
2021/05/21 05:22:25;;;;;;;1.13;0.88;;;16.80;71.60;;;;;;5136651;27;20043;-47
2021/05/21 05:24:51;;;;;;;2.35;0.80;;;16.80;71.50;;;;;;5136731;27;20059;-48
2021/05/21 05:27:17;;;;;;;1.70;0.95;;;16.80;71.60;;;;;;5134674;27;20588;-53
2021/05/21 05:29:47;;;;;;;2.70;0.90;;;16.70;71.50;;;;;;5136454;27;20050;-48
2021/05/21 05:32:13;;;;;;;3.15;0.98;;;16.80;71.60;;;;;;5136749;27;20089;-46
2021/05/21 05:34:39;;;;;;;1.85;0.85;;;16.70;71.50;;;;;;5136666;27;20047;-45
2021/05/21 05:37:04;;;;;;;2.03;1.10;;;16.70;71.50;;;;;;5136457;27;20104;-44
2021/05/21 05:39:30;;;;;;;1.20;1.10;;;16.70;71.50;;;;;;5136111;27;20096;-45
2021/05/21 05:41:56;;;;;;;2.15;0.93;;;16.70;71.50;;;;;;5136167;27;20042;-47
2021/05/21 05:44:22;;;;;;;1.90;0.95;;;16.80;71.60;;;;;;5135412;27;20051;-48
2021/05/21 05:46:47;;;;;;;1.60;0.73;;;16.80;71.60;;;;;;5136429;27;20051;-49
2021/05/21 05:49:13;;;;;;;0.95;0.85;;;16.70;71.50;;;;;;5136022;27;20071;-48
2021/05/21 05:51:40;;;;;;;1.65;0.95;;;16.70;71.50;;;;;;5134788;27;20120;-47
2021/05/21 05:54:06;;;;;;;2.40;0.98;;;16.70;71.60;;;;;;5135769;27;20043;-48
2021/05/21 05:56:32;;;;;;;2.30;1.00;;;16.70;71.60;;;;;;5135847;27;20070;-47
2021/05/21 05:58:58;;;;;;;1.83;0.90;;;16.70;71.60;;;;;;5135818;27;20043;-47
2021/05/21 06:01:23;;;;;;;2.08;1.00;;;16.70;71.60;;;;;;5135831;27;20039;-50
2021/05/21 06:03:49;;;;;;;2.08;1.30;;;16.70;71.60;;;;;;5135918;27;20039;-52
2021/05/21 06:06:15;;;;;;;1.35;0.90;;;16.70;71.60;;;;;;5135916;27;20043;-51
2021/05/21 06:08:40;;;;;;;1.25;0.98;;;16.70;71.60;;;;;;5135537;27;20100;-48
2021/05/21 06:11:07;;;;;;;2.90;1.10;;;16.70;71.60;;;;;;5134039;27;20491;-45
2021/05/21 06:13:32;;;;;;;1.30;0.85;;;16.70;71.60;;;;;;5134457;27;20100;-46
2021/05/21 06:15:58;;;;;;;1.85;0.95;;;16.70;71.60;;;;;;5135853;27;20055;-51
2021/05/21 06:18:24;;;;;;;2.17;1.05;;;16.70;71.60;;;;;;5135472;27;20480;-50
2021/05/21 06:20:49;;;;;;;1.17;0.82;;;16.70;71.60;;;;;;5135252;27;20050;-50
2021/05/21 06:23:15;;;;;;;2.35;1.10;;;16.70;71.60;;;;;;5135500;27;20419;-47
2021/05/21 06:28:25;;;;;;;2.67;1.17;;;16.70;71.60;;;;;;5135298;27;20039;-45
2021/05/21 06:30:52;;;;;;;1.23;0.90;;;16.70;71.60;;;;;;5135352;27;20158;-43
2021/05/21 06:33:19;;;;;;;3.00;1.25;;;16.70;71.60;;;;;;5134752;27;20122;-49
2021/05/21 06:35:46;;;;;;;2.78;0.98;;;16.70;72.20;;;;;;5135280;27;20117;-50
2021/05/21 06:38:12;;;;;;;2.63;1.13;;;16.70;71.60;;;;;;5135015;27;20047;-48
2021/05/21 06:40:38;;;;;;;1.42;0.90;;;16.70;71.60;;;;;;5134790;27;20506;-49
2021/05/21 06:43:12;;;;;;;2.47;0.82;;;16.80;71.70;;;;;;5135013;27;20051;-46
2021/05/21 06:45:39;;;;;;;2.03;1.13;;;16.70;71.60;;;;;;5135194;27;20077;-47
2021/05/21 06:48:05;;;;;;;1.70;0.70;;;16.70;71.60;;;;;;5135254;27;20039;-45
2021/05/21 06:50:31;;;;;;;1.20;0.98;;;16.70;71.60;;;;;;5135016;27;20051;-50
2021/05/21 06:52:57;;;;;;;2.15;1.10;;;16.70;71.60;;;;;;5134446;27;20087;-49
2021/05/21 06:55:23;;;;;;;1.55;0.98;;;16.70;71.60;;;;;;5134032;27;20050;-44
2021/05/21 06:57:49;;;;;;;2.05;0.82;;;16.70;71.60;;;;;;5134931;27;20058;-48
2021/05/21 07:00:15;;;;;;;2.67;1.00;;;16.70;71.60;;;;;;5134857;27;20503;-47
2021/05/21 07:02:42;;;;;;;2.70;1.15;;;16.70;71.60;;;;;;5134824;27;20415;-48
2021/05/21 07:05:08;;;;;;;1.42;1.10;;;16.70;71.60;;;;;;5134562;27;20513;-51
2021/05/21 07:07:34;;;;;;;1.92;1.20;;;16.80;71.70;;;;;;5134580;27;20053;-47
2021/05/21 07:10:00;;;;;;;3.08;1.02;;;16.70;71.60;;;;;;5134604;27;20373;-49
2021/05/21 07:12:27;;;;;;;1.90;1.00;;;16.70;71.60;;;;;;5134139;27;20055;-45
2021/05/21 07:14:53;;;;;;;2.00;1.00;;;16.80;71.70;;;;;;5134173;27;20043;-49
2021/05/21 07:17:19;;;;;;;1.90;1.30;;;16.70;71.60;;;;;;5134818;27;20479;-43
2021/05/21 07:19:44;;;;;;;1.98;0.98;;;16.70;71.60;;;;;;5134582;27;20043;-45
2021/05/21 07:22:10;;;;;;;1.92;1.02;;;16.80;71.60;;;;;;5134203;27;20043;-52
2021/05/21 07:24:36;;;;;;;2.22;1.23;;;16.80;71.70;;;;;;5134036;27;20460;-47
2021/05/21 07:27:04;;;;;;;3.70;1.25;;;16.70;71.60;;;;;;5134049;27;20046;-46
2021/05/21 07:29:29;;;;;;;1.90;1.25;;;16.80;71.60;;;;;;5134560;27;20047;-45
2021/05/21 07:31:55;;;;;;;2.42;1.10;;;16.80;71.60;;;;;;5134429;27;20616;-44
2021/05/21 07:34:21;;;;;;;1.85;1.00;;;16.80;71.60;;;;;;5134007;27;20054;-47
2021/05/21 07:36:47;;;;;;;2.17;0.75;;;16.80;71.60;;;;;;5134128;27;20483;-47
2021/05/21 07:39:14;;;;;;;2.55;1.10;;;16.80;71.60;;;;;;5133366;27;20389;-45
2021/05/21 07:41:40;;;;;;;2.42;1.33;;;16.80;71.60;;;;;;5133783;27;20042;-47
2021/05/21 07:44:07;;;;;;;3.58;1.23;;;16.80;71.60;;;;;;5134181;27;20099;-44
2021/05/21 07:46:34;;;;;;;3.78;1.10;;;16.80;71.60;;;;;;5133942;27;20085;-45
2021/05/21 07:49:00;;;;;;;4.40;1.27;;;16.80;71.60;;;;;;5134126;27;20078;-45
2021/05/21 07:51:26;;;;;;;2.60;1.30;;;16.80;71.60;;;;;;5134180;27;20051;-48
2021/05/21 07:53:52;;;;;;;2.13;1.08;;;16.80;71.60;;;;;;5133915;27;20044;-48
2021/05/21 07:56:18;;;;;;;2.42;0.88;;;16.80;71.60;;;;;;5133605;27;20118;-43
2021/05/21 07:58:44;;;;;;;3.33;1.25;;;16.80;71.60;;;;;;5133653;27;20076;-49
2021/05/21 08:01:10;;;;;;;4.05;1.23;;;16.80;71.60;;;;;;5134029;27;20495;-48
2021/05/21 08:03:36;;;;;;;2.55;1.20;;;16.80;71.50;;;;;;5131820;27;20035;-46
2021/05/21 08:06:02;;;;;;;2.53;1.00;;;16.80;71.60;;;;;;5132976;27;20058;-48
2021/05/21 08:08:28;;;;;;;1.85;1.00;;;16.80;71.50;;;;;;5133534;27;20051;-47
2021/05/21 08:10:58;;;;;;;3.13;1.42;;;16.80;71.50;;;;;;5133789;27;20047;-46
2021/05/21 08:13:24;;;;;;;2.97;1.38;;;16.80;71.50;;;;;;5133509;27;20047;-46
2021/05/21 08:15:51;;;;;;;1.95;1.13;;;16.80;71.50;;;;;;5133965;27;20039;-49
2021/05/21 08:18:17;;;;;;;2.53;0.88;;;16.80;71.50;;;;;;5133303;27;20039;-47
2021/05/21 08:20:44;;;;;;;1.38;1.02;;;16.90;72.20;;;;;;5133768;27;20062;-45
2021/05/21 08:23:14;;;;;;;2.25;1.02;;;16.80;72.20;;;;;;5133751;27;20043;-48
2021/05/21 08:25:40;;;;;;;3.55;1.30;;;16.90;71.60;;;;;;5133614;27;20039;-49
2021/05/21 08:28:10;;;;;;;2.22;1.27;;;16.80;71.50;;;;;;5133132;27;20414;-47
2021/05/21 08:30:36;;;;;;;2.03;1.17;;;16.80;71.50;;;;;;5132698;28;20046;-50
2021/05/21 08:33:02;;;;;;;3.42;1.38;;;16.80;71.50;;;;;;5133525;27;20078;-49
2021/05/21 08:35:30;;;;;;;3.28;1.40;;;16.80;71.40;;;;;;5136066;27;20368;-50
2021/05/21 08:37:56;;;;;;;4.60;1.08;;;16.80;71.40;;;;;;5137463;27;20491;-51
2021/05/21 08:40:28;;;;;;;3.70;1.50;;;16.90;71.50;;;;;;5137764;27;20130;-47
2021/05/21 08:42:58;;;;;;;2.63;1.17;;;16.90;71.50;;;;;;5137608;27;20043;-49
2021/05/21 08:45:30;;;;;;;3.42;1.10;;;16.90;71.40;;;;;;5137156;27;20096;-49
2021/05/21 08:47:57;;;;;;;2.97;0.88;;;16.90;71.40;;;;;;5137625;27;20051;-48
2021/05/21 08:50:24;;;;;;;2.17;1.10;;;16.90;71.40;;;;;;5137641;27;20043;-50
2021/05/21 08:52:50;;;;;;;2.78;1.27;;;16.90;71.40;;;;;;5137449;27;20126;-47
2021/05/21 08:55:17;;;;;;;3.80;1.20;;;16.90;71.40;;;;;;5137178;27;20436;-44
2021/05/21 08:57:43;;;;;;;1.33;0.85;;;16.90;71.40;;;;;;5137390;27;20100;-50
2021/05/21 09:00:11;;;;;;;4.65;1.05;;;16.80;71.40;;;;;;5136841;27;20074;-48
2021/05/21 09:02:38;;;;;;;3.42;1.40;;;16.90;71.40;;;;;;5137197;27;20403;-50
2021/05/21 09:05:10;;;;;;;4.35;1.30;;;16.90;71.40;;;;;;5135687;27;20495;-49
2021/05/21 09:07:41;;;;;;;4.50;1.23;;;16.90;71.40;;;;;;5136979;27;20043;-43
2021/05/21 09:10:13;;;;;;;3.22;1.30;;;16.90;71.40;;;;;;5137400;27;20058;-45
2021/05/21 09:12:47;;;;;;;1.45;0.90;;;16.90;71.40;;;;;;5136896;27;20050;-45
2021/05/21 09:15:18;;;;;;;2.80;1.15;;;16.90;71.40;;;;;;5136635;27;20039;-51
2021/05/21 09:18:01;;;;;;;1.42;1.02;;;16.90;71.40;;;;;;5137016;27;20043;-52
2021/05/21 09:20:33;;;;;;;2.47;1.05;;;16.90;71.40;;;;;;5136610;27;20115;-54
2021/05/21 09:23:03;;;;;;;2.17;1.42;;;16.90;71.40;;;;;;5136408;27;20156;-49
2021/05/21 09:25:44;;;;;;;3.13;1.17;;;16.90;71.40;;;;;;5136939;27;20047;-54
2021/05/21 09:28:37;;;;;;;1.77;1.00;;;16.90;71.40;;;;;;5144384;27;20066;-54
2021/05/21 09:31:19;;;;;;;2.95;1.02;;;16.90;71.40;;;;;;5132694;27;20153;-56
2021/05/21 09:33:49;;;;;;;3.58;1.20;;;16.90;71.40;;;;;;5136689;27;20047;-55
2021/05/21 09:36:27;;;;;;;1.98;1.38;;;16.90;71.40;;;;;;5136630;27;20049;-56
2021/05/21 09:38:54;;;;;;;5.25;1.52;;;16.90;71.40;;;;;;5136446;27;20121;-54
2021/05/21 09:41:22;;;;;;;5.53;1.45;;;16.90;71.40;;;;;;5136360;27;20043;-53
2021/05/21 09:43:56;;;;;;;10.10;3.38;;;16.90;71.30;;;;;;5136275;27;20051;-54
2021/05/21 09:46:22;;;;;;;9.48;2.90;;;16.80;69.90;;;;;;5135054;27;20365;-56
2021/05/21 09:48:48;;;;;;;13.48;3.45;;;16.70;70.70;;;;;;5136312;27;20043;-56
2021/05/21 09:51:19;;;;;;;11.40;2.85;;;16.70;69.90;;;;;;5136197;27;20064;-54
2021/05/21 09:53:46;;;;;;;9.60;2.83;;;16.70;69.70;;;;;;5136179;27;20051;-53
2021/05/21 09:56:20;;;;;;;7.35;2.78;;;16.70;69.70;;;;;;5136090;27;20043;-52
2021/05/21 09:58:47;;;;;;;8.15;2.70;;;16.70;69.60;;;;;;5136258;27;20054;-55
2021/05/21 10:01:13;;;;;;;9.68;2.60;;;16.80;69.80;;;;;;5135791;27;20123;-54
2021/05/21 10:03:57;;;;;;;8.10;2.50;;;16.80;69.80;;;;;;5135982;27;20100;-55
2021/05/21 10:06:27;;;;;;;9.23;2.22;;;16.80;69.90;;;;;;5136084;27;20444;-53
2021/05/21 10:08:56;;;;;;;5.38;2.63;;;16.70;69.90;;;;;;5134541;27;20074;-55
2021/05/21 10:11:22;;;;;;;8.90;3.03;;;16.80;70.00;;;;;;5135930;27;20047;-53
2021/05/21 10:13:48;;;;;;;7.65;2.30;;;16.80;70.10;;;;;;5134524;27;20043;-55
2021/05/21 10:16:15;;;;;;;9.85;2.50;;;16.80;70.20;;;;;;5135715;27;20116;-55
2021/05/21 10:18:49;;;;;;;7.57;2.20;;;16.90;70.30;;;;;;5135775;27;20039;-55
2021/05/21 10:21:16;;;;;;;6.53;2.05;;;16.90;70.40;;;;;;5135591;27;20043;-56
2021/05/21 10:24:03;;;;;;;8.95;2.42;;;16.90;70.40;;;;;;5134249;27;20031;-55
2021/05/21 10:26:37;;;;;;;7.10;2.25;;;16.90;70.50;;;;;;5135638;27;20050;-54
2021/05/21 10:29:11;;;;;;;4.00;1.50;;;16.90;70.50;;;;;;5135101;27;20046;-56
2021/05/21 10:31:37;;;;;;;9.15;2.25;;;16.90;70.60;;;;;;5134846;27;20289;-62
2021/05/21 10:34:12;;;;;;;5.47;2.10;;;16.90;70.60;;;;;;5135081;27;20140;-55
2021/05/21 10:36:37;;;;;;;9.05;2.40;;;17.00;70.80;;;;;;5135350;27;20096;-52
2021/05/21 10:39:22;;;;;;;6.05;1.92;;;16.90;70.70;;;;;;5135116;27;20473;-54
2021/05/21 10:41:56;;;;;;;7.43;1.83;;;16.90;70.80;;;;;;5135333;27;20043;-55
2021/05/21 10:44:23;;;;;;;5.72;2.28;;;16.90;70.80;;;;;;5135067;27;20092;-55
2021/05/21 10:46:50;;;;;;;5.50;1.75;;;16.90;70.90;;;;;;5134976;27;20495;-55
2021/05/21 10:49:27;;;;;;;3.47;1.65;;;16.90;70.90;;;;;;5135018;27;20046;-55
2021/05/21 10:52:00;;;;;;;4.30;1.63;;;16.90;71.00;;;;;;5134907;27;20491;-55
2021/05/21 10:54:34;;;;;;;11.13;2.97;;;17.00;71.10;;;;;;5134933;27;20047;-54
2021/05/21 10:57:30;;;;;;;8.10;2.70;;;16.90;70.40;;;;;;5134414;27;20065;-53
2021/05/21 10:59:58;;;;;;;6.70;1.83;;;16.90;70.30;;;;;;5133918;27;20047;-54
2021/05/21 11:02:26;;;;;;;8.25;2.25;;;17.00;70.40;;;;;;5134614;27;20092;-55
2021/05/21 11:04:53;;;;;;;12.60;2.72;;;17.00;70.40;;;;;;5134689;27;20047;-54
2021/05/21 11:07:38;;;;;;;6.28;2.00;;;17.00;70.40;;;;;;5134700;27;20039;-54
2021/05/21 11:10:05;;;;;;;5.33;2.27;;;17.00;70.40;;;;;;5134721;27;20047;-53
2021/05/21 11:13:00;;;;;;;5.38;1.83;;;17.00;70.60;;;;;;5133743;27;20111;-53
2021/05/21 11:15:53;;;;;;;5.07;1.67;;;17.00;70.50;;;;;;5134456;27;20139;-53
2021/05/21 11:18:22;;;;;;;4.05;1.63;;;17.00;70.60;;;;;;5134060;27;20502;-53
2021/05/21 11:21:06;;;;;;;5.90;1.85;;;17.10;70.70;;;;;;5134274;27;20126;-53
2021/05/21 11:23:40;;;;;;;3.33;1.55;;;17.00;70.60;;;;;;5134774;27;20040;-50
2021/05/21 11:26:17;;;;;;;3.50;1.40;;;17.10;70.70;;;;;;5134441;27;20133;-54
2021/05/21 11:28:45;;;;;;;5.50;1.77;;;17.10;70.70;;;;;;5133641;27;20079;-52
2021/05/21 11:31:29;;;;;;;5.82;1.73;;;17.10;70.80;;;;;;5134172;27;20482;-51
2021/05/21 11:33:58;;;;;;;13.82;3.58;;;17.10;70.80;;;;;;5133768;27;20047;-55
2021/05/21 11:36:25;;;;;;;9.90;2.80;;;17.00;69.00;;;;;;5133623;27;20058;-53
2021/05/21 11:38:52;;;;;;;8.57;2.58;;;16.90;69.00;;;;;;5133949;27;20079;-54
2021/05/21 11:41:27;;;;;;;7.00;2.33;;;16.90;68.70;;;;;;5134069;27;20067;-54
2021/05/21 11:43:53;;;;;;;8.03;2.63;;;16.90;68.60;;;;;;5134354;27;20050;-53
2021/05/21 11:46:20;;;;;;;10.93;2.60;;;16.90;68.70;;;;;;5134091;27;20368;-54
2021/05/21 11:48:48;;;;;;;7.47;2.70;;;16.90;68.70;;;;;;5131279;27;20126;-53
2021/05/21 11:51:25;;;;;;;7.93;2.30;;;16.90;68.80;;;;;;5133299;27;20126;-55
2021/05/21 11:54:02;;;;;;;6.53;2.08;;;16.90;68.90;;;;;;5133786;27;20042;-53
2021/05/21 11:56:36;;;;;;;4.75;2.22;;;16.90;69.00;;;;;;5133752;27;20047;-54
2021/05/21 11:59:07;;;;;;;6.32;2.20;;;17.00;69.10;;;;;;5133380;27;20068;-54
2021/05/21 12:01:34;;;;;;;8.82;2.42;;;17.00;69.30;;;;;;5133746;27;20065;-54
2021/05/21 12:04:07;;;;;;;7.20;2.30;;;17.00;69.40;;;;;;5133701;27;20518;-52
2021/05/21 12:06:34;;;;;;;9.40;2.40;;;17.00;69.50;;;;;;5133436;27;20047;-53
2021/05/21 12:09:00;;;;;;;6.15;2.05;;;17.00;69.60;;;;;;5132333;27;20071;-53
2021/05/21 12:11:26;;;;;;;7.45;2.10;;;17.00;69.60;;;;;;5133216;28;20082;-54
2021/05/21 12:13:59;;;;;;;5.10;2.10;;;17.00;69.70;;;;;;5133685;28;20043;-53
2021/05/21 12:16:27;;;;;;;5.72;2.65;;;17.00;70.50;;;;;;5133591;28;20051;-54
2021/05/21 12:18:53;;;;;;;7.43;1.88;;;17.00;69.80;;;;;;5153609;27;20074;-54
2021/05/21 12:21:24;;;;;;;4.45;1.98;;;17.00;69.90;;;;;;5154250;27;20092;-53
2021/05/21 12:23:56;;;;;;;8.10;2.08;;;17.00;70.00;;;;;;5154351;27;20058;-53
2021/05/21 12:26:30;;;;;;;5.57;2.08;;;17.10;70.10;;;;;;5154473;27;20046;-52
2021/05/21 12:28:58;;;;;;;8.85;1.58;;;17.10;70.10;;;;;;5135762;27;20862;-53
2021/05/21 12:31:31;;;;;;;5.97;2.05;;;17.10;70.20;;;;;;5153263;27;20055;-54
2021/05/21 12:33:58;;;;;;;14.43;3.33;;;17.10;70.20;;;;;;5154187;27;20444;-55
2021/05/21 12:36:28;;;;;;;10.13;2.95;;;17.00;70.10;;;;;;5153800;27;20035;-56
2021/05/21 12:38:56;;;;;;;11.13;2.90;;;16.90;70.60;;;;;;5154007;27;20129;-54
2021/05/21 12:41:38;;;;;;;8.35;2.45;;;16.90;71.00;;;;;;5153844;27;20122;-55
2021/05/21 12:44:11;;;;;;;8.07;2.90;;;16.90;71.50;;;;;;5153817;27;20089;-55
2021/05/21 12:46:51;;;;;;;10.65;2.92;;;16.90;72.00;;;;;;5154094;27;20045;-55
2021/05/21 12:49:35;;;;;;;10.57;2.40;;;16.80;71.70;;;;;;5154032;27;20474;-54
2021/05/21 12:52:04;;;;;;;6.18;2.55;;;16.80;72.30;;;;;;5152834;27;20046;-54